トロムソ の空港の天気 - METARとTAF

トロムソ空港 ( ENTC / TOS ) - ノルウェー トロムス県トロムソ
飛行場実況気象(Metar)
観測時間02/20 15:50 CET (02/20 14:50 UTC)
風向・風速南南西 6m/s
視程10km以上
天気現象周辺でしゅう雨
少しの雲 雲底高度 300m
全天の4割程度の雲 雲底高度 1550m
気温-4℃
湿度68%
気圧982hPa
METARENTC 201450Z 21011KT 9999 VCSH FEW010 SCT051 M04/M09 Q0982 TEMPO 0500 +SHSNGS VV004 RMK WIND 2600FT 27016KT
過去の天気等 Google飛行場航空写真 Wunderground天気予報

過去48時間のMETAR

飛行場予報(TAF)
発表時間: -
20日13時 CET ~ 20日22時 CET に一時的に
風向・風速西北西 10m/s 瞬間風速 15m/s
視程300m
天気現象強いしゅう雪あられ
全天を覆う雲 鉛直視程 120m
20日22時 CET ~ 21日13時 CET に一時的に
風向・風速北北西 8m/s 瞬間風速 13m/s
視程500m
天気現象しゅう雪
全天を覆う雲 鉛直視程 240m
TAF ENTC 2012/2112 23012KT 9999 FEW015CB BKN030
TEMPO 2012/2021 29020G30KT 0300 +SHSNGS VV004
TEMPO 2021/2112 33015G25KT 0500 SHSN VV008